Terminal Aerodrome Forecast
Issued by NWS

Home | Current Version | Previous Version | Text Only | Print | Product List | Glossary On
Versions: 1 2 3 4 5 6 7 8 9 10 11 12 13 14 15 16 17 18 19 20 21 22
000
FTUS43 KBIS 221913 AAA
TAFDIK
TAF AMD
KDIK 221913Z 2219/2318 29025G36KT P6SM FEW200
     FM222200 31016G24KT P6SM SKC
     FM230000 32009KT P6SM SKC
     FM230500 26006KT P6SM SCT250
     FM230900 23007KT P6SM SCT200
     FM231500 25011KT P6SM SCT150=

USA.gov is the U.S. government's official web portal to all federal, state and local government web resources and services.